地図

経路データ

SID SEASON NUMBER BASIN SUBBASIN NAME ISO_TIME NATURE LAT LON WMO_WIND WMO_PRES WMO_AGENCY TRACK_TYPE DIST2LAND LANDFALL IFLAG USA_AGENCY USA_ATCF_ID USA_LAT USA_LON USA_RECORD USA_STATUS USA_WIND USA_PRES USA_SSHS USA_R34_NE USA_R34_SE USA_R34_SW USA_R34_NW USA_R50_NE USA_R50_SE USA_R50_SW USA_R50_NW USA_R64_NE USA_R64_SE USA_R64_SW USA_R64_NW USA_POCI USA_ROCI USA_RMW USA_EYE TOKYO_LAT TOKYO_LON TOKYO_GRADE TOKYO_WIND TOKYO_PRES TOKYO_R50_DIR TOKYO_R50_LONG TOKYO_R50_SHORT TOKYO_R30_DIR TOKYO_R30_LONG TOKYO_R30_SHORT TOKYO_LAND CMA_LAT CMA_LON CMA_CAT CMA_WIND CMA_PRES HKO_LAT HKO_LON HKO_CAT HKO_WIND HKO_PRES NEWDELHI_LAT NEWDELHI_LON NEWDELHI_GRADE NEWDELHI_WIND NEWDELHI_PRES NEWDELHI_CI NEWDELHI_DP NEWDELHI_POCI REUNION_LAT REUNION_LON REUNION_TYPE REUNION_WIND REUNION_PRES REUNION_TNUM REUNION_CI REUNION_RMW REUNION_R34_NE REUNION_R34_SE REUNION_R34_SW REUNION_R34_NW REUNION_R50_NE REUNION_R50_SE REUNION_R50_SW REUNION_R50_NW REUNION_R64_NE REUNION_R64_SE REUNION_R64_SW REUNION_R64_NW BOM_LAT BOM_LON BOM_TYPE BOM_WIND BOM_PRES BOM_TNUM BOM_CI BOM_RMW BOM_R34_NE BOM_R34_SE BOM_R34_SW BOM_R34_NW BOM_R50_NE BOM_R50_SE BOM_R50_SW BOM_R50_NW BOM_R64_NE BOM_R64_SE BOM_R64_SW BOM_R64_NW BOM_ROCI BOM_POCI BOM_EYE BOM_POS_METHOD BOM_PRES_METHOD NADI_LAT NADI_LON NADI_CAT NADI_WIND NADI_PRES WELLINGTON_LAT WELLINGTON_LON WELLINGTON_WIND WELLINGTON_PRES DS824_LAT DS824_LON DS824_STAGE DS824_WIND DS824_PRES TD9636_LAT TD9636_LON TD9636_STAGE TD9636_WIND TD9636_PRES TD9635_LAT TD9635_LON TD9635_WIND TD9635_PRES TD9635_ROCI NEUMANN_LAT NEUMANN_LON NEUMANN_CLASS NEUMANN_WIND NEUMANN_PRES MLC_LAT MLC_LON MLC_CLASS MLC_WIND MLC_PRES USA_GUST BOM_GUST BOM_GUST_PER REUNION_GUST REUNION_GUST_PER USA_SEAHGT USA_SEARAD_NE USA_SEARAD_SE USA_SEARAD_SW USA_SEARAD_NW STORM_SPEED STORM_DIR
1891224N23089 1891 19 NI BB NOT_NAMED 1891-08-12 00:00:00 TS 22.9000 89.3000 main 0 0 _________O____ -1 22.9000 89.3000 TC 30 1 270
1891224N23089 1891 19 NI BB NOT_NAMED 1891-08-12 03:00:00 TS 22.9000 89.2417 main 0 0 _________PO___ -1 22.9000 89.2125 TC 30 22.9000 89.3000 1 2 270
1891224N23089 1891 19 NI BB NOT_NAMED 1891-08-12 06:00:00 TS 22.9001 89.1169 main 0 0 _________OP___ -1 22.9000 89.1000 TC 30 22.9003 89.1422 1 2 270
1891224N23089 1891 19 NI BB NOT_NAMED 1891-08-12 09:00:00 TS 22.9002 88.9704 main 0 0 _________PP___ -1 22.9000 88.9500 TC 30 22.9004 88.9975 1 3 270
1891224N23089 1891 19 NI BB NOT_NAMED 1891-08-12 12:00:00 TS 22.9002 88.8395 main 0 0 _________OP___ -1 22.9000 88.8000 TC 30 22.9003 88.8791 1 2 270
1891224N23089 1891 19 NI BB NOT_NAMED 1891-08-12 15:00:00 TS 22.9000 88.7425 main 0 0 _________PO___ -1 22.9000 88.6850 TC 30 22.9000 88.8000 1 1 270
1891224N23089 1891 19 NI BB NOT_NAMED 1891-08-12 18:00:00 TS 22.8998 88.6817 main 0 0 _________OP___ -1 22.9000 88.6000 TC 30 22.8996 88.7634 1 1 270
1891224N23089 1891 19 NI BB NOT_NAMED 1891-08-12 21:00:00 TS 22.8996 88.6562 main 0 0 _________PP___ -1 22.8999 88.5800 TC 30 22.8992 88.7325 1 1 270
1891224N23089 1891 19 NI BB NOT_NAMED 1891-08-13 00:00:00 TS 22.8997 88.5801 main 0 0 _________OP___ -1 22.9000 88.5000 TC 30 22.8993 88.6603 1 3 270
1891224N23089 1891 19 NI BB NOT_NAMED 1891-08-13 03:00:00 TS 22.8999 88.3837 main 0 0 _________PO___ -1 22.8999 88.2675 TC 30 22.9000 88.5000 1 5 270
1891224N23089 1891 19 NI BB NOT_NAMED 1891-08-13 06:00:00 TS 22.9003 88.0447 main 0 0 _________OP___ -1 22.9000 87.9000 TC 30 22.9005 88.1894 1 7 270
1891224N23089 1891 19 NI BB NOT_NAMED 1891-08-13 09:00:00 TS 22.9005 87.6025 main 0 0 _________PP___ -1 22.9002 87.4150 TC 30 22.9008 87.7900 1 8 270
1891224N23089 1891 19 NI BB NOT_NAMED 1891-08-13 12:00:00 TS 22.9002 87.1228 main 0 0 _________OP___ -1 22.9000 86.9000 TC 30 22.9005 87.3456 1 8 270
1891224N23089 1891 19 NI BB NOT_NAMED 1891-08-13 15:00:00 TS 22.8999 86.6888 main 0 0 _________PO___ -1 22.8998 86.4775 TC 30 22.9000 86.9000 1 7 269
1891224N23089 1891 19 NI BB NOT_NAMED 1891-08-13 18:00:00 TS 22.8834 86.3187 main 0 0 _________OP___ -1 22.9000 86.1000 TC 30 22.8668 86.5373 1 7 267
1891224N23089 1891 19 NI BB NOT_NAMED 1891-08-13 21:00:00 TS 22.8618 85.9755 main 0 0 _________PP___ -1 22.8846 85.7723 TC 30 22.8390 86.1787 1 7 269
1891224N23089 1891 19 NI BB NOT_NAMED 1891-08-14 00:00:00 TS 22.8708 85.6029 main 0 0 _________OP___ -1 22.9000 85.4000 TC 30 22.8417 85.8058 1 8 275
1891224N23089 1891 19 NI BB NOT_NAMED 1891-08-14 03:00:00 TS 22.9276 85.1324 main 0 0 _________PO___ -1 22.9552 84.8648 TC 30 22.9000 85.4000 1 9 282
1891224N23089 1891 19 NI BB NOT_NAMED 1891-08-14 06:00:00 TS 23.0572 84.6119 main 0 0 _________OP___ -1 23.1000 84.3000 TC 30 23.0144 84.9238 1 10 291
1891224N23089 1891 19 NI BB NOT_NAMED 1891-08-14 09:00:00 TS 23.2751 84.1249 main 0 0 _________PP___ -1 23.3622 83.8350 TC 30 23.1880 84.4149 1 10 300
1891224N23089 1891 19 NI BB NOT_NAMED 1891-08-14 12:00:00 TS 23.5587 83.6492 main 0 0 _________OP___ -1 23.7000 83.4000 TC 30 23.4175 83.8985 1 11 304
1891224N23089 1891 19 NI BB NOT_NAMED 1891-08-14 15:00:00 TS 23.8675 83.1712 main 0 0 _________PO___ -1 24.0349 82.9423 TC 30 23.7000 83.4000 1 11 308
1891224N23089 1891 19 NI BB NOT_NAMED 1891-08-14 18:00:00 TS 24.2368 82.6972 main 0 0 _________OP___ -1 24.4000 82.5000 TC 30 24.0736 82.8943 1 12 313
1891224N23089 1891 19 NI BB NOT_NAMED 1891-08-14 21:00:00 TS 24.6665 82.2290 main 0 0 _________PP___ -1 24.8451 82.0405 TC 30 24.4879 82.4176 1 11 316
1891224N23089 1891 19 NI BB NOT_NAMED 1891-08-15 00:00:00 TS 25.0416 81.8534 main 0 0 _________OP___ -1 25.2000 81.7000 TC 30 24.8831 82.0068 1 8 318
1891224N23089 1891 19 NI BB NOT_NAMED 1891-08-15 03:00:00 TS 25.2474 81.6485 main 0 0 _________PO___ -1 25.2948 81.5970 TC 30 25.2000 81.7000 1 4 318
1891224N23089 1891 19 NI BB NOT_NAMED 1891-08-15 06:00:00 TS 25.3262 81.5723 main 0 0 _________OP___ -1 25.3000 81.6000 TC 30 25.3523 81.5446 1 2 324
1891224N23089 1891 19 NI BB NOT_NAMED 1891-08-15 09:00:00 TS 25.4083 81.5253 main 0 0 _________PP___ -1 25.3925 81.5575 TC 30 25.4241 81.4932 1 2 336
1891224N23089 1891 19 NI BB NOT_NAMED 1891-08-15 12:00:00 TS 25.4794 81.4976 main 0 0 _________OP___ -1 25.5000 81.5000 TC 30 25.4589 81.4952 1 2 334
1891224N23089 1891 19 NI BB NOT_NAMED 1891-08-15 15:00:00 TS 25.5463 81.4500 main 0 0 _________PO___ -1 25.5925 81.4000 TC 30 25.5000 81.5000 1 2 330
1891224N23089 1891 19 NI BB NOT_NAMED 1891-08-15 18:00:00 TS 25.6323 81.3956 main 0 0 _________OP___ -1 25.7000 81.3000 TC 30 25.5816 81.4673 1 2 334
1891224N23089 1891 19 NI BB NOT_NAMED 1891-08-15 21:00:00 TS 25.7562 81.3341 main 0 0 _________PP___ -1 25.8400 81.2375 TC 30 25.7004 81.3984 1 3 338
1891224N23089 1891 19 NI BB NOT_NAMED 1891-08-16 00:00:00 TS 25.8960 81.2702 main 0 0 _________OP___ -1 26.0000 81.2000 TC 30 25.8440 81.3054 1 3 334
1891224N23089 1891 19 NI BB NOT_NAMED 1891-08-16 03:00:00 NR 26.0000 81.2000 main 0 __________O___ -1 TC 26.0000 81.2000 1 2 326

IBTrACS Databaseについて

本データベースは、米国NOAAが公開する1842年以降の世界の熱帯低気圧のベストトラックデータアーカイブInternational Best Track Archive for Climate Stewardship (IBTrACS)を、ウェブで閲覧しやすい形式に変換したものです。

最終更新日:2021-12-08